Time;durP1;ratioP1;P1;durP2;ratioP2;P2;SDS_P1;SDS_P2;PMS_P1;PMS_P2;Temp;Humidity;BMP_temperature;BMP_pressure;BME280_temperature;BME280_humidity;BME280_pressure;Samples;Min_cycle;Max_cycle;Signal;HPM_P1;HPM_P2
2021/10/23 00:01:33;;;;;;;0.00;0.00;;;;;;;12.31;77.38;99233.31;5029405;28;20476;-74
2021/10/23 00:03:58;;;;;;;0.00;0.00;;;;;;;12.28;76.85;99233.88;5030097;28;20099;-74
2021/10/23 00:06:24;;;;;;;0.00;0.00;;;;;;;12.27;77.03;99232.28;5030282;28;20029;-73
2021/10/23 00:08:49;;;;;;;0.00;0.00;;;;;;;12.32;76.98;99247.53;5029667;28;20040;-72
2021/10/23 00:11:14;;;;;;;0.10;0.10;;;;;;;12.30;76.87;99247.81;5030120;28;20049;-72
2021/10/23 00:13:40;;;;;;;0.00;0.00;;;;;;;12.30;76.84;99241.63;5029748;28;20029;-73
2021/10/23 00:16:05;;;;;;;0.10;0.10;;;;;;;12.27;76.73;99234.97;5030077;28;20030;-74
2021/10/23 00:18:31;;;;;;;0.10;0.10;;;;;;;12.24;76.23;99230.19;5028396;28;20035;-76
2021/10/23 00:20:56;;;;;;;0.00;0.00;;;;;;;12.25;76.02;99236.31;5030463;28;20601;-75
2021/10/23 00:23:22;;;;;;;0.00;0.00;;;;;;;12.23;76.15;99227.75;5028952;28;20053;-75
2021/10/23 00:25:47;;;;;;;0.00;0.00;;;;;;;12.22;76.54;99235.00;5030476;28;20059;-76
2021/10/23 00:28:13;;;;;;;0.00;0.00;;;;;;;12.17;76.27;99227.03;5028928;28;20482;-75
2021/10/23 00:30:38;;;;;;;0.00;0.00;;;;;;;12.13;76.17;99221.41;5029743;28;20044;-75
2021/10/23 00:33:04;;;;;;;0.28;0.28;;;;;;;12.20;76.52;99226.44;5029886;28;20026;-76
2021/10/23 00:35:30;;;;;;;0.00;0.00;;;;;;;12.09;76.05;99212.31;5028447;28;20033;-75
2021/10/23 00:37:56;;;;;;;0.10;0.10;;;;;;;12.14;75.98;99230.25;5045486;28;20083;-78
2021/10/23 00:40:22;;;;;;;0.00;0.00;;;;;;;12.06;76.29;99212.09;5029870;28;20033;-77
2021/10/23 00:42:47;;;;;;;0.10;0.10;;;;;;;12.09;76.25;99214.22;5033152;28;20064;-74
2021/10/23 00:45:13;;;;;;;0.00;0.00;;;;;;;12.12;76.38;99219.81;5033869;28;20094;-74
2021/10/23 00:47:39;;;;;;;0.05;0.05;;;;;;;12.10;75.61;99231.91;5017920;28;20037;-74
2021/10/23 00:50:06;;;;;;;0.00;0.00;;;;;;;12.06;75.90;99231.66;5016324;28;20514;-75
2021/10/23 00:52:31;;;;;;;0.00;0.00;;;;;;;12.04;76.15;99231.16;5033562;28;20044;-76
2021/10/23 00:54:57;;;;;;;0.00;0.00;;;;;;;11.93;76.15;99218.88;5032901;28;20033;-74
2021/10/23 00:57:22;;;;;;;0.10;0.10;;;;;;;11.91;76.42;99226.41;5033291;28;20042;-76
2021/10/23 00:59:48;;;;;;;0.00;0.00;;;;;;;11.86;76.48;99211.16;5032080;28;20029;-77
2021/10/23 01:02:13;;;;;;;0.00;0.00;;;;;;;11.91;76.58;99221.03;5031367;28;20132;-77
2021/10/23 01:04:40;;;;;;;0.20;0.20;;;;;;;11.93;77.02;99219.66;5032062;28;20026;-74
2021/10/23 01:07:06;;;;;;;0.10;0.10;;;;;;;11.94;76.74;99215.13;5031886;28;20478;-75
2021/10/23 01:09:38;;;;;;;0.00;0.00;;;;;;;11.89;76.77;99191.03;5033337;28;20032;-76
2021/10/23 01:12:08;;;;;;;0.00;0.00;;;;;;;11.86;76.72;99184.34;5033017;28;20037;-77
2021/10/23 01:14:34;;;;;;;0.00;0.00;;;;;;;11.91;76.59;99197.69;5031619;28;20060;-76
2021/10/23 01:16:59;;;;;;;0.00;0.00;;;;;;;11.97;76.52;99195.81;5031782;28;20180;-76
2021/10/23 01:19:25;;;;;;;0.15;0.15;;;;;;;11.90;76.85;99190.75;5031596;28;20033;-74
2021/10/23 01:21:51;;;;;;;0.00;0.00;;;;;;;11.98;76.67;99202.78;5033185;28;20124;-75
2021/10/23 01:24:18;;;;;;;0.03;0.03;;;;;;;11.94;76.23;99207.09;5031350;28;20071;-75
2021/10/23 01:26:44;;;;;;;0.00;0.00;;;;;;;11.88;76.64;99192.91;5033192;28;20566;-75
2021/10/23 01:29:13;;;;;;;0.00;0.00;;;;;;;11.95;76.52;99219.38;5032891;28;20072;-75
2021/10/23 01:31:39;;;;;;;0.10;0.10;;;;;;;11.94;75.95;99217.81;5031492;28;20037;-74
2021/10/23 01:34:19;;;;;;;0.00;0.00;;;;;;;11.91;76.03;99205.75;5032149;28;20025;-74
2021/10/23 01:36:56;;;;;;;0.00;0.00;;;;;;;11.84;75.69;99199.94;5032966;28;20030;-73
2021/10/23 01:39:24;;;;;;;0.00;0.00;;;;;;;11.86;75.45;99205.78;5032961;28;20398;-75
2021/10/23 01:41:50;;;;;;;0.00;0.00;;;;;;;11.82;75.82;99210.91;5031285;28;20065;-76
2021/10/23 01:44:16;;;;;;;0.08;0.08;;;;;;;11.76;75.80;99197.84;5022012;28;20400;-75
2021/10/23 01:46:43;;;;;;;0.00;0.00;;;;;;;11.81;75.57;99211.19;5012606;28;20040;-75
2021/10/23 01:49:09;;;;;;;0.00;0.00;;;;;;;11.79;75.82;99205.31;5026798;28;20030;-75
2021/10/23 01:51:36;;;;;;;0.00;0.00;;;;;;;11.74;76.05;99203.47;5032128;28;20051;-75
2021/10/23 01:54:06;;;;;;;0.10;0.10;;;;;;;11.77;75.81;99215.53;5012404;28;20416;-75
2021/10/23 01:56:33;;;;;;;0.05;0.05;;;;;;;11.68;76.45;99215.28;5011443;28;20407;-74
2021/10/23 01:59:00;;;;;;;0.00;0.00;;;;;;;11.68;75.83;99210.75;5012794;28;20092;-74
2021/10/23 02:01:25;;;;;;;0.00;0.00;;;;;;;11.77;76.60;99229.72;5012313;28;20034;-74
2021/10/23 02:03:51;;;;;;;0.05;0.05;;;;;;;11.68;76.35;99213.44;5011332;28;20022;-75
2021/10/23 02:06:16;;;;;;;0.00;0.00;;;;;;;11.68;76.63;99217.97;5012080;28;20032;-74
2021/10/23 02:08:41;;;;;;;0.00;0.00;;;;;;;11.71;76.94;99217.44;5012156;28;20026;-74
2021/10/23 02:11:07;;;;;;;0.10;0.10;;;;;;;11.80;76.43;99233.72;5016522;28;20068;-74
2021/10/23 02:13:32;;;;;;;0.20;0.20;;;;;;;11.79;76.59;99226.75;5030924;28;20025;-74
2021/10/23 02:15:58;;;;;;;0.00;0.00;;;;;;;11.78;76.42;99227.81;5031466;28;20486;-74
2021/10/23 02:18:23;;;;;;;0.00;0.00;;;;;;;11.76;76.84;99216.59;5031908;28;20029;-74
2021/10/23 02:20:49;;;;;;;0.00;0.00;;;;;;;11.77;76.83;99223.56;5030427;28;20475;-75
2021/10/23 02:23:14;;;;;;;0.00;0.00;;;;;;;11.76;76.77;99227.31;5031855;28;20033;-74
2021/10/23 02:25:40;;;;;;;0.10;0.10;;;;;;;11.76;76.76;99224.63;5031624;28;20080;-75
2021/10/23 02:28:05;;;;;;;0.00;0.00;;;;;;;11.75;77.12;99215.78;5031697;28;20037;-74
2021/10/23 02:30:31;;;;;;;0.00;0.00;;;;;;;11.81;76.90;99225.38;5031859;28;20041;-74
2021/10/23 02:32:56;;;;;;;0.00;0.00;;;;;;;11.72;77.16;99212.84;5030595;28;20017;-75
2021/10/23 02:35:22;;;;;;;0.00;0.00;;;;;;;11.77;76.85;99226.25;5045510;28;20060;-74
2021/10/23 02:37:47;;;;;;;0.00;0.00;;;;;;;11.72;77.32;99220.91;5032084;28;20017;-74
2021/10/23 02:40:13;;;;;;;0.00;0.00;;;;;;;11.68;77.59;99223.34;5030139;28;20030;-76
2021/10/23 02:42:39;;;;;;;0.03;0.03;;;;;;;11.67;77.12;99214.50;5031599;28;20045;-77
2021/10/23 02:45:06;;;;;;;0.00;0.00;;;;;;;11.74;77.29;99221.44;5029564;28;20026;-76
2021/10/23 02:47:32;;;;;;;0.00;0.00;;;;;;;11.76;77.11;99227.31;5014929;28;20034;-76
2021/10/23 02:49:57;;;;;;;0.08;0.08;;;;;;;11.74;77.66;99224.09;5010453;28;20511;-77
2021/10/23 02:52:23;;;;;;;0.03;0.03;;;;;;;11.74;77.13;99224.09;5010189;28;20025;-77
2021/10/23 02:54:48;;;;;;;0.43;0.43;;;;;;;11.73;77.10;99228.69;5026858;28;20029;-76
2021/10/23 02:57:13;;;;;;;0.00;0.00;;;;;;;11.75;77.42;99225.72;5030005;28;20036;-75
2021/10/23 02:59:40;;;;;;;0.10;0.10;;;;;;;11.79;77.31;99232.91;5031711;28;20390;-76
2021/10/23 03:02:06;;;;;;;0.00;0.00;;;;;;;11.78;76.99;99225.97;5030004;28;20080;-76
2021/10/23 03:04:31;;;;;;;0.00;0.00;;;;;;;11.75;76.91;99225.72;5030840;28;20029;-76
2021/10/23 03:06:57;;;;;;;0.00;0.00;;;;;;;11.77;77.12;99224.34;5031104;28;20029;-76
2021/10/23 03:09:22;;;;;;;0.00;0.00;;;;;;;11.77;77.08;99232.38;5029620;28;20022;-77
2021/10/23 03:11:48;;;;;;;0.00;0.00;;;;;;;11.78;76.92;99231.31;5029221;28;20128;-76
2021/10/23 03:14:13;;;;;;;0.00;0.00;;;;;;;11.72;77.15;99223.56;5030700;28;20030;-76
2021/10/23 03:16:39;;;;;;;0.00;0.00;;;;;;;11.74;76.90;99230.25;5018852;28;20042;-77
2021/10/23 03:19:04;;;;;;;0.05;0.05;;;;;;;11.64;77.42;99215.06;5011712;28;20546;-75
2021/10/23 03:21:29;;;;;;;0.10;0.10;;;;;;;11.62;77.00;99219.09;5009791;28;20121;-75
2021/10/23 03:23:55;;;;;;;0.08;0.08;;;;;;;11.62;77.44;99229.81;5021263;28;20029;-75
2021/10/23 03:26:20;;;;;;;0.00;0.00;;;;;;;11.64;77.02;99239.16;5029601;28;20029;-73
2021/10/23 03:28:46;;;;;;;0.00;0.00;;;;;;;11.63;77.33;99239.44;5029241;28;20087;-75
2021/10/23 03:31:11;;;;;;;0.00;0.00;;;;;;;11.55;77.08;99227.44;5030094;28;20487;-73
2021/10/23 03:33:37;;;;;;;0.00;0.00;;;;;;;11.53;77.61;99229.59;5029692;28;20029;-74
2021/10/23 03:36:03;;;;;;;0.10;0.10;;;;;;;11.61;77.40;99247.78;5029543;28;20030;-76
2021/10/23 03:38:29;;;;;;;0.00;0.00;;;;;;;11.59;77.66;99246.44;5025138;28;20630;-75
2021/10/23 03:40:55;;;;;;;0.00;0.00;;;;;;;11.59;77.71;99243.78;5009633;28;20045;-77
2021/10/23 03:43:20;;;;;;;0.00;0.00;;;;;;;11.60;77.67;99250.72;5011112;28;20505;-74
2021/10/23 03:45:45;;;;;;;0.00;0.00;;;;;;;11.51;77.95;99242.47;5015297;28;20570;-73
2021/10/23 03:48:11;;;;;;;0.00;0.00;;;;;;;11.46;77.34;99224.56;5029375;28;20033;-74
2021/10/23 03:50:36;;;;;;;0.00;0.00;;;;;;;11.52;77.82;99244.06;5029678;28;20116;-75
2021/10/23 03:53:02;;;;;;;0.00;0.00;;;;;;;11.42;77.30;99231.53;5029296;28;20024;-74
2021/10/23 03:55:27;;;;;;;0.00;0.00;;;;;;;11.38;77.36;99228.59;5029259;28;20029;-74
2021/10/23 03:57:53;;;;;;;0.00;0.00;;;;;;;11.38;77.36;99223.25;5029341;28;20402;-75
2021/10/23 04:00:18;;;;;;;0.00;0.00;;;;;;;11.43;77.61;99245.75;5029095;28;20033;-74
2021/10/23 04:02:45;;;;;;;0.00;0.00;;;;;;;11.37;77.17;99239.59;5024900;28;20089;-74
2021/10/23 04:05:11;;;;;;;0.00;0.00;;;;;;;11.36;77.29;99249.53;5010888;28;20085;-74
2021/10/23 04:07:36;;;;;;;0.00;0.00;;;;;;;11.33;77.89;99244.72;5010721;28;20034;-74
2021/10/23 04:10:03;;;;;;;0.05;0.05;;;;;;;11.32;77.43;99247.66;5023528;28;20468;-76
2021/10/23 04:12:29;;;;;;;0.00;0.00;;;;;;;11.19;77.20;99235.66;5029131;28;20105;-76
2021/10/23 04:14:55;;;;;;;0.00;0.00;;;;;;;11.21;77.01;99239.66;5030016;28;20037;-77
2021/10/23 04:17:20;;;;;;;0.08;0.08;;;;;;;11.14;77.16;99230.34;5032418;28;20037;-77
2021/10/23 04:19:45;;;;;;;0.10;0.10;;;;;;;11.12;77.79;99243.19;5032839;28;20030;-75
2021/10/23 04:22:12;;;;;;;0.10;0.10;;;;;;;11.09;77.00;99241.88;5033951;28;20033;-74
2021/10/23 04:24:38;;;;;;;0.00;0.00;;;;;;;11.04;77.59;99240.00;5034598;28;20082;-75
2021/10/23 04:27:03;;;;;;;0.00;0.00;;;;;;;11.07;77.54;99251.25;5032924;28;20022;-75
2021/10/23 04:29:29;;;;;;;0.00;0.00;;;;;;;11.01;78.06;99251.28;5032022;28;20037;-74
2021/10/23 04:31:54;;;;;;;0.00;0.00;;;;;;;11.01;77.59;99261.97;5034192;28;20508;-75
2021/10/23 04:34:20;;;;;;;0.00;0.00;;;;;;;11.04;77.76;99261.41;5033601;28;20422;-75
2021/10/23 04:36:45;;;;;;;0.00;0.00;;;;;;;10.93;77.70;99243.03;5032782;28;20109;-75
2021/10/23 04:39:11;;;;;;;0.00;0.00;;;;;;;10.95;77.77;99252.38;5034000;28;20391;-75
2021/10/23 04:41:37;;;;;;;0.00;0.00;;;;;;;10.96;77.37;99258.50;5033068;28;20054;-74
2021/10/23 04:44:03;;;;;;;0.00;0.00;;;;;;;10.92;77.30;99249.44;5028624;28;20407;-76
2021/10/23 04:46:28;;;;;;;0.10;0.10;;;;;;;10.96;77.41;99253.16;5033614;28;20037;-77
2021/10/23 04:48:54;;;;;;;0.22;0.22;;;;;;;10.96;77.12;99256.66;5032512;28;20032;-76
2021/10/23 04:51:19;;;;;;;0.00;0.00;;;;;;;10.92;77.64;99244.09;5032166;28;20040;-75
2021/10/23 04:53:45;;;;;;;0.00;0.00;;;;;;;10.98;77.85;99257.16;5032469;28;20037;-75
2021/10/23 04:56:10;;;;;;;0.00;0.00;;;;;;;10.97;78.32;99255.56;5032320;28;20044;-75
2021/10/23 04:58:38;;;;;;;0.00;0.00;;;;;;;11.01;78.34;99259.31;5033399;28;20104;-74
2021/10/23 05:01:03;;;;;;;0.00;0.00;;;;;;;11.15;78.16;99270.22;5028266;28;20033;-75
2021/10/23 05:03:29;;;;;;;0.75;0.13;;;;;;;11.25;78.01;99273.94;5033071;28;20033;-76
2021/10/23 05:05:55;;;;;;;0.00;0.00;;;;;;;11.33;77.63;99270.69;5033696;28;20033;-76
2021/10/23 05:08:20;;;;;;;0.10;0.10;;;;;;;11.42;77.14;99278.94;5019775;28;20044;-76
2021/10/23 05:10:47;;;;;;;0.10;0.10;;;;;;;11.49;77.00;99276.78;5013315;28;20467;-76
2021/10/23 05:13:13;;;;;;;0.08;0.08;;;;;;;11.61;76.63;99293.31;5013554;28;20033;-75
2021/10/23 05:15:39;;;;;;;0.00;0.00;;;;;;;11.71;76.49;99289.75;5013117;28;20411;-77
2021/10/23 05:18:04;;;;;;;0.10;0.10;;;;;;;11.87;76.21;99300.41;5012131;28;20029;-76
2021/10/23 05:20:30;;;;;;;0.03;0.03;;;;;;;11.95;75.66;99295.25;5011786;28;20034;-76
2021/10/23 05:22:55;;;;;;;0.00;0.00;;;;;;;12.10;75.12;99299.72;5013753;28;20153;-76
2021/10/23 05:25:21;;;;;;;0.00;0.00;;;;;;;12.12;74.12;99284.16;5011315;28;20109;-76
2021/10/23 05:27:46;;;;;;;0.05;0.05;;;;;;;12.28;74.39;99300.09;5011757;28;20026;-77
2021/10/23 05:30:11;;;;;;;0.00;0.00;;;;;;;12.41;74.17;99314.75;5023466;28;20033;-76
2021/10/23 05:32:37;;;;;;;0.00;0.00;;;;;;;12.54;74.61;99318.69;5032520;28;20029;-76
2021/10/23 05:35:03;;;;;;;0.00;0.00;;;;;;;12.70;73.23;99313.97;5031229;28;20419;-77
2021/10/23 05:37:29;;;;;;;0.00;0.00;;;;;;;12.82;73.19;99317.06;5032709;28;20568;-76
2021/10/23 05:39:54;;;;;;;0.00;0.00;;;;;;;12.93;72.10;99329.28;5029041;28;20037;-76
2021/10/23 05:42:19;;;;;;;0.40;0.40;;;;;;;13.07;72.73;99332.13;5023289;28;20525;-76
2021/10/23 05:44:45;;;;;;;0.10;0.10;;;;;;;13.22;72.44;99338.38;5022254;28;20029;-76
2021/10/23 05:47:10;;;;;;;0.00;0.00;;;;;;;13.39;71.47;99340.63;5032463;28;20128;-76
2021/10/23 05:49:36;;;;;;;0.98;0.47;;;;;;;13.52;70.77;99349.91;5030556;28;20104;-77
2021/10/23 05:52:01;;;;;;;0.05;0.05;;;;;;;13.67;70.58;99347.03;5032823;28;20122;-76
2021/10/23 05:54:27;;;;;;;0.00;0.00;;;;;;;13.83;70.13;99350.31;5031800;28;20025;-77
2021/10/23 05:56:53;;;;;;;0.10;0.10;;;;;;;14.01;69.21;99355.97;5031985;28;20037;-76
2021/10/23 05:59:18;;;;;;;0.20;0.20;;;;;;;14.11;69.42;99355.81;5029323;28;20026;-77
2021/10/23 06:01:45;;;;;;;0.10;0.10;;;;;;;14.25;68.50;99356.66;5011167;28;20030;-77
2021/10/23 06:04:12;;;;;;;0.20;0.20;;;;;;;14.39;67.71;99361.31;5011352;28;20041;-77
2021/10/23 06:06:38;;;;;;;0.00;0.00;;;;;;;14.47;67.46;99363.34;5011102;28;20030;-77
2021/10/23 06:09:04;;;;;;;0.10;0.10;;;;;;;14.55;67.35;99364.56;5020691;28;20414;-76
2021/10/23 06:11:30;;;;;;;0.08;0.08;;;;;;;14.63;66.71;99368.47;5030649;28;20025;-76
2021/10/23 06:13:58;;;;;;;0.00;0.00;;;;;;;14.61;67.00;99367.97;5032288;28;20108;-77
2021/10/23 06:16:24;;;;;;;0.00;0.00;;;;;;;14.65;66.70;99371.69;5030057;28;20030;-76
2021/10/23 06:18:49;;;;;;;0.10;0.10;;;;;;;14.65;66.29;99377.88;5030378;28;20038;-74
2021/10/23 06:21:15;;;;;;;0.00;0.00;;;;;;;14.63;66.73;99382.72;5031666;28;20022;-74
2021/10/23 06:23:41;;;;;;;0.05;0.05;;;;;;;14.67;66.59;99375.69;5031444;28;20036;-76
2021/10/23 06:26:06;;;;;;;0.10;0.10;;;;;;;14.68;66.44;99377.31;5031438;28;20033;-73
2021/10/23 06:28:36;;;;;;;0.05;0.05;;;;;;;14.69;66.71;99376.19;5020811;28;20068;-75
2021/10/23 06:31:05;;;;;;;0.10;0.10;;;;;;;14.77;66.93;99388.19;5031867;28;20034;-75
2021/10/23 06:33:32;;;;;;;0.40;0.40;;;;;;;14.87;67.36;99388.00;5030358;28;20396;-75
2021/10/23 06:35:57;;;;;;;0.10;0.10;;;;;;;14.92;67.73;99395.19;5031449;28;20037;-75
2021/10/23 06:38:22;;;;;;;0.10;0.10;;;;;;;14.96;67.98;99387.31;5030798;28;20087;-75
2021/10/23 06:40:48;;;;;;;0.17;0.17;;;;;;;15.07;68.26;99387.94;5030189;28;20056;-76
2021/10/23 06:43:13;;;;;;;0.00;0.00;;;;;;;15.10;67.68;99388.16;5030970;28;20061;-74
2021/10/23 06:45:39;;;;;;;0.10;0.10;;;;;;;15.31;67.95;99395.84;5029289;28;20029;-75
2021/10/23 06:48:06;;;;;;;0.10;0.10;;;;;;;15.40;68.10;99396.72;5031459;28;20108;-76
2021/10/23 06:50:31;;;;;;;0.10;0.10;;;;;;;15.47;67.90;99389.06;5029279;28;20490;-76
2021/10/23 06:52:57;;;;;;;0.00;0.00;;;;;;;15.62;67.59;99398.72;5030312;28;20028;-80
2021/10/23 06:55:22;;;;;;;0.20;0.20;;;;;;;15.74;67.66;99397.44;5029064;28;20094;-79
2021/10/23 06:57:48;;;;;;;0.10;0.10;;;;;;;15.89;67.53;99396.34;5029208;28;20029;-75
2021/10/23 07:00:14;;;;;;;0.10;0.10;;;;;;;15.98;66.79;99395.31;5017555;28;20384;-75
2021/10/23 07:02:45;;;;;;;0.00;0.00;;;;;;;16.20;66.95;99401.84;5011389;28;20077;-75
2021/10/23 07:05:16;;;;;;;0.00;0.00;;;;;;;16.36;66.63;99413.09;5014224;28;20418;-75
2021/10/23 07:07:42;;;;;;;0.00;0.00;;;;;;;16.51;65.86;99411.16;5016307;28;20120;-77
2021/10/23 07:10:09;;;;;;;0.10;0.10;;;;;;;16.62;65.43;99407.09;5022637;28;20632;-78
2021/10/23 07:12:35;;;;;;;0.57;0.57;;;;;;;16.75;65.30;99408.94;5029473;28;20032;-81
2021/10/23 07:15:00;;;;;;;0.08;0.08;;;;;;;16.90;66.86;99412.34;5027125;28;20033;-78
2021/10/23 07:17:26;;;;;;;0.20;0.20;;;;;;;17.06;66.50;99415.50;5031685;28;20021;-85
2021/10/23 07:19:54;;;;;;;0.10;0.10;;;;;;;17.21;65.67;99414.28;5046286;28;20029;-77
2021/10/23 07:22:20;;;;;;;0.10;0.10;;;;;;;17.38;65.30;99422.47;5028924;28;20037;-77
2021/10/23 07:24:46;;;;;;;0.20;0.20;;;;;;;17.46;64.76;99407.38;5029034;28;20127;-73
2021/10/23 07:27:11;;;;;;;0.03;0.03;;;;;;;17.59;63.34;99406.47;5029351;28;20471;-76
2021/10/23 07:29:37;;;;;;;0.05;0.05;;;;;;;17.68;62.29;99409.19;5030499;28;20021;-76
2021/10/23 07:32:03;;;;;;;0.43;0.43;;;;;;;17.65;63.08;99395.50;5028957;28;20061;-74
2021/10/23 07:34:28;;;;;;;0.10;0.10;;;;;;;17.80;63.13;99411.31;5029140;28;20026;-75
2021/10/23 07:36:54;;;;;;;0.20;0.20;;;;;;;17.87;62.29;99405.41;5028885;28;20033;-75
2021/10/23 07:39:19;;;;;;;0.00;0.00;;;;;;;17.89;62.71;99401.31;5017086;28;20026;-75
2021/10/23 07:41:46;;;;;;;0.10;0.10;;;;;;;18.02;62.27;99405.00;5028002;28;20046;-76
2021/10/23 07:44:12;;;;;;;0.03;0.03;;;;;;;18.10;62.27;99400.69;5029620;28;20095;-76
2021/10/23 07:46:39;;;;;;;0.10;0.10;;;;;;;18.15;61.78;99405.16;5022658;28;20120;-75
2021/10/23 07:49:07;;;;;;;0.47;0.43;;;;;;;18.22;61.55;99405.47;5026706;28;20021;-75
2021/10/23 07:51:37;;;;;;;0.10;0.10;;;;;;;18.29;60.89;99410.44;5025316;28;20037;-79
2021/10/23 07:54:04;;;;;;;0.20;0.20;;;;;;;18.32;60.65;99410.59;5013794;28;20038;-78
2021/10/23 07:56:30;;;;;;;0.10;0.10;;;;;;;18.32;59.67;99412.50;5013638;28;20030;-78
2021/10/23 07:58:55;;;;;;;0.20;0.20;;;;;;;18.31;60.46;99425.25;5013677;28;20501;-78
2021/10/23 08:01:21;;;;;;;0.60;0.60;;;;;;;18.31;61.71;99425.25;5013508;28;20045;-79
2021/10/23 08:03:46;;;;;;;1.27;0.50;;;;;;;18.34;60.29;99430.00;5029762;28;20117;-78
2021/10/23 08:06:11;;;;;;;0.00;0.00;;;;;;;18.40;60.52;99430.66;5013514;28;20116;-78
2021/10/23 08:08:37;;;;;;;0.00;0.00;;;;;;;18.39;61.38;99418.22;5029786;28;20033;-78
2021/10/23 08:11:04;;;;;;;0.10;0.10;;;;;;;18.51;60.91;99425.72;5013586;28;20073;-78
2021/10/23 08:13:30;;;;;;;0.20;0.20;;;;;;;18.60;60.99;99426.50;5012851;28;20092;-78
2021/10/23 08:15:57;;;;;;;0.10;0.10;;;;;;;18.71;60.72;99418.81;5013269;28;20030;-78
2021/10/23 08:18:23;;;;;;;0.40;0.40;;;;;;;18.82;58.28;99419.28;5013241;28;20026;-78
2021/10/23 08:20:49;;;;;;;0.20;0.20;;;;;;;18.83;58.24;99413.53;5029610;28;20057;-78
2021/10/23 08:23:14;;;;;;;0.00;0.00;;;;;;;18.90;57.35;99425.84;5014432;28;20063;-78
2021/10/23 08:25:40;;;;;;;0.10;0.10;;;;;;;18.89;57.25;99427.72;5012845;28;20034;-78
2021/10/23 08:28:05;;;;;;;0.88;0.35;;;;;;;18.88;56.67;99431.56;5013040;28;20061;-78
2021/10/23 08:30:31;;;;;;;0.10;0.10;;;;;;;18.85;56.34;99434.91;5012785;28;20042;-81
2021/10/23 08:32:58;;;;;;;0.10;0.10;;;;;;;18.85;56.25;99440.34;5013032;28;20108;-78
2021/10/23 08:35:24;;;;;;;0.40;0.40;;;;;;;18.83;55.50;99435.22;5012719;28;20124;-78
2021/10/23 08:37:51;;;;;;;0.10;0.10;;;;;;;18.83;55.56;99429.81;5012769;28;20133;-79
2021/10/23 08:40:17;;;;;;;0.08;0.08;;;;;;;18.88;56.17;99431.56;5012638;28;20030;-79
2021/10/23 08:42:43;;;;;;;0.40;0.40;;;;;;;18.93;55.55;99431.44;5012630;28;20036;-79
2021/10/23 08:45:10;;;;;;;0.25;0.17;;;;;;;18.92;54.61;99429.84;5012835;28;20052;-79
2021/10/23 08:47:37;;;;;;;0.75;0.75;;;;;;;19.00;55.38;99428.22;5013825;28;20470;-80
2021/10/23 08:50:05;;;;;;;1.38;0.95;;;;;;;19.08;54.84;99435.53;5012668;28;20030;-79
2021/10/23 08:52:31;;;;;;;0.10;0.10;;;;;;;19.03;53.84;99431.06;5012588;28;20030;-80
2021/10/23 08:54:56;;;;;;;0.00;0.00;;;;;;;19.14;53.78;99434.25;5012676;28;20037;-80
2021/10/23 08:57:27;;;;;;;1.13;1.10;;;;;;;19.20;54.09;99434.88;5012627;28;20141;-81
2021/10/23 08:59:53;;;;;;;0.08;0.08;;;;;;;19.22;53.18;99438.03;5029022;28;20471;-80
2021/10/23 09:02:20;;;;;;;0.10;0.10;;;;;;;19.30;55.01;99434.50;5011690;28;20026;-80
2021/10/23 09:04:47;;;;;;;0.00;0.00;;;;;;;19.34;54.23;99427.28;5013223;28;20068;-80
2021/10/23 09:07:14;;;;;;;0.05;0.05;;;;;;;19.47;53.66;99436.34;5012403;28;20552;-81
2021/10/23 09:09:48;;;;;;;0.65;0.65;;;;;;;19.53;52.87;99434.25;5028659;28;20057;-81
2021/10/23 09:12:25;;;;;;;0.17;0.17;;;;;;;19.52;52.84;99427.25;5013344;28;20411;-81
2021/10/23 09:14:58;;;;;;;0.40;0.40;;;;;;;19.57;52.97;99428.97;5028619;28;20037;-81
2021/10/23 09:17:24;;;;;;;0.73;0.73;;;;;;;19.65;52.46;99426.22;5012298;28;20545;-81
2021/10/23 09:19:51;;;;;;;0.15;0.15;;;;;;;19.71;52.52;99432.22;5012042;28;20427;-81
2021/10/23 09:22:32;;;;;;;0.45;0.45;;;;;;;19.78;52.46;99426.31;5012131;28;20026;-80
2021/10/23 09:25:21;;;;;;;0.35;0.35;;;;;;;19.87;52.82;99435.19;5013266;28;20045;-80
2021/10/23 09:28:26;;;;;;;0.13;0.13;;;;;;;19.90;52.43;99414.78;5011834;28;20037;-81
2021/10/23 09:30:51;;;;;;;0.75;0.47;;;;;;;19.99;51.18;99420.91;5005797;28;20494;-81
2021/10/23 09:33:22;;;;;;;0.47;0.47;;;;;;;19.99;52.03;99413.59;5011948;28;20061;-82
2021/10/23 09:35:49;;;;;;;0.10;0.10;;;;;;;20.07;51.99;99411.94;5011565;28;20057;-82
2021/10/23 09:38:20;;;;;;;0.28;0.28;;;;;;;20.13;52.00;99398.97;5011856;28;20026;-82
2021/10/23 09:40:47;;;;;;;0.00;0.00;;;;;;;20.26;52.81;99403.31;5011253;28;20049;-81
2021/10/23 09:43:16;;;;;;;0.10;0.10;;;;;;;20.43;52.22;99399.66;5011861;28;20022;-82
2021/10/23 09:48:42;;;;;;;0.13;0.13;;;;;;;20.74;51.01;99397.66;5013030;28;20037;-81
2021/10/23 09:51:19;;;;;;;0.00;0.00;;;;;;;20.86;50.39;99391.44;5011627;28;20029;-81
2021/10/23 09:53:48;;;;;;;0.38;0.30;;;;;;;20.97;50.03;99380.91;5011506;28;20079;-80
2021/10/23 09:56:20;;;;;;;0.00;0.00;;;;;;;21.11;49.30;99389.56;5011730;28;20037;-80
2021/10/23 09:58:56;;;;;;;0.10;0.10;;;;;;;21.14;49.13;99379.94;5027575;28;20026;-80
2021/10/23 10:01:28;;;;;;;0.25;0.25;;;;;;;21.27;49.25;99387.75;5011244;28;20034;-81
2021/10/23 10:03:54;;;;;;;0.03;0.03;;;;;;;21.30;47.67;99386.28;5027911;28;20461;-80
2021/10/23 10:06:21;;;;;;;0.10;0.10;;;;;;;21.28;48.13;99385.84;5011301;28;20104;-80
2021/10/23 10:08:48;;;;;;;0.00;0.00;;;;;;;21.28;47.98;99383.88;5027611;28;20030;-81
2021/10/23 10:11:14;;;;;;;0.10;0.10;;;;;;;21.34;48.66;99381.75;5011254;28;20029;-81
2021/10/23 10:13:41;;;;;;;0.10;0.10;;;;;;;21.37;48.48;99372.13;5009975;28;20030;-81
2021/10/23 10:16:09;;;;;;;0.10;0.10;;;;;;;21.43;48.11;99378.91;5011134;28;20064;-81
2021/10/23 10:18:36;;;;;;;0.10;0.10;;;;;;;21.49;47.82;99382.97;5010924;28;20467;-81
2021/10/23 10:21:07;;;;;;;0.32;0.32;;;;;;;21.56;47.29;99372.34;5010951;28;20037;-82
2021/10/23 10:23:36;;;;;;;0.00;0.00;;;;;;;21.62;47.84;99378.38;5010767;28;20558;-80
2021/10/23 10:26:14;;;;;;;0.22;0.22;;;;;;;21.67;46.34;99372.69;5011942;28;20084;-81
2021/10/23 10:29:12;;;;;;;0.10;0.10;;;;;;;21.67;45.32;99378.13;5012355;28;20402;-80
2021/10/23 10:42:53;;;;;;;0.10;0.10;;;;;;;21.93;46.12;99376.16;5011843;28;20053;-81
2021/10/23 10:45:41;;;;;;;;;;;;;;;21.97;45.84;99369.69;5011282;28;20029;-82
2021/10/23 10:48:26;;;;;;;0.20;0.20;;;;;;;21.96;44.69;99359.94;5010587;28;19920;-81
2021/10/23 10:50:57;;;;;;;0.00;0.00;;;;;;;21.92;45.03;99359.00;5010257;28;20574;-81
2021/10/23 10:53:24;;;;;;;0.00;0.00;;;;;;;22.02;45.79;99366.72;5010485;28;20032;-81
2021/10/23 10:55:56;;;;;;;0.10;0.10;;;;;;;22.05;45.34;99359.78;5010250;28;20030;-81
2021/10/23 10:58:45;;;;;;;0.10;0.10;;;;;;;22.02;44.38;99344.94;5010315;28;20021;-81
2021/10/23 11:01:19;;;;;;;0.10;0.10;;;;;;;22.15;44.81;99355.78;5010242;28;20030;-81
2021/10/23 11:04:05;;;;;;;0.10;0.10;;;;;;;22.16;45.01;99352.69;5010007;28;20028;-81
2021/10/23 11:06:33;;;;;;;0.00;0.00;;;;;;;22.18;45.66;99355.88;5011177;28;20517;-81
2021/10/23 11:09:10;;;;;;;;;;;;;;;22.21;45.80;99354.38;5010497;28;20030;-81
2021/10/23 11:11:49;;;;;;;0.63;0.52;;;;;;;22.18;44.97;99344.97;5009550;28;19909;-81
2021/10/23 11:16:55;;;;;;;0.08;0.08;;;;;;;22.19;44.81;99352.03;5011014;28;20117;-81
2021/10/23 11:19:25;;;;;;;0.05;0.05;;;;;;;22.18;44.53;99355.06;5010032;28;20037;-81
2021/10/23 11:22:27;;;;;;;0.00;0.00;;;;;;;22.18;44.80;99355.88;5026158;28;20109;-81
2021/10/23 11:25:08;;;;;;;0.43;0.43;;;;;;;22.18;45.27;99355.06;5009305;28;20117;-80
2021/10/23 11:27:41;;;;;;;0.00;0.00;;;;;;;21.98;43.97;99335.84;5009704;28;20091;-80
2021/10/23 11:30:10;;;;;;;0.10;0.10;;;;;;;22.07;44.90;99352.06;5009323;28;20025;-79
2021/10/23 11:32:38;;;;;;;0.52;0.52;;;;;;;22.01;45.32;99348.78;5009158;28;20034;-80
2021/10/23 11:35:05;;;;;;;0.08;0.08;;;;;;;21.97;45.48;99347.09;5026045;28;20026;-80
2021/10/23 11:37:30;;;;;;;0.10;0.10;;;;;;;21.95;45.24;99349.34;5009909;28;20035;-80
2021/10/23 11:40:07;;;;;;;0.15;0.15;;;;;;;21.91;45.88;99352.00;5009674;28;20110;-80
2021/10/23 11:42:43;;;;;;;0.20;0.20;;;;;;;21.88;45.82;99353.47;5009187;28;20446;-80
2021/10/23 11:45:12;;;;;;;0.10;0.10;;;;;;;21.83;45.37;99352.94;5009483;28;20105;-81
2021/10/23 11:47:37;;;;;;;0.17;0.15;;;;;;;21.88;46.42;99356.19;5009191;28;20030;-80
2021/10/23 11:50:27;;;;;;;0.40;0.40;;;;;;;21.87;46.13;99353.81;5009559;28;20072;-80
2021/10/23 11:52:55;;;;;;;0.10;0.10;;;;;;;21.81;46.82;99350.53;5008802;28;20049;-80